createdAt,value
2018-06-09T00:01:11.037Z,21.20
2018-06-09T00:03:39.481Z,21.30
2018-06-09T00:06:07.980Z,21.30
2018-06-09T00:08:36.423Z,21.20
2018-06-09T00:11:04.977Z,21.20
2018-06-09T00:13:33.412Z,21.20
2018-06-09T00:16:01.865Z,21.20
2018-06-09T00:18:30.319Z,21.20
2018-06-09T00:20:58.813Z,21.10
2018-06-09T00:23:27.257Z,21.20
2018-06-09T00:25:55.753Z,21.20
2018-06-09T00:28:24.179Z,21.20
2018-06-09T00:30:52.614Z,21.20
2018-06-09T00:33:21.029Z,21.10
2018-06-09T00:35:49.525Z,21.00
2018-06-09T00:38:17.931Z,21.00
2018-06-09T00:40:46.412Z,21.00
2018-06-09T00:43:14.871Z,20.90
2018-06-09T00:45:43.260Z,20.80
2018-06-09T00:48:11.684Z,20.90
2018-06-09T00:50:40.127Z,20.90
2018-06-09T00:53:08.587Z,20.90
2018-06-09T00:55:37.028Z,20.90
2018-06-09T00:58:05.504Z,20.90
2018-06-09T01:00:33.903Z,20.80
2018-06-09T01:05:30.568Z,20.90
2018-06-09T01:07:59.036Z,20.80
2018-06-09T01:10:27.514Z,20.90
2018-06-09T01:12:56.013Z,20.80
2018-06-09T01:15:24.432Z,20.70
2018-06-09T01:17:52.875Z,20.60
2018-06-09T01:20:21.330Z,20.50
2018-06-09T01:22:49.749Z,20.40
2018-06-09T01:25:18.203Z,20.40
2018-06-09T01:27:46.703Z,20.30
2018-06-09T01:30:15.260Z,20.30
2018-06-09T01:32:43.718Z,20.30
2018-06-09T01:35:12.336Z,20.20
2018-06-09T01:37:40.789Z,20.10
2018-06-09T01:40:09.310Z,20.10
2018-06-09T01:42:37.796Z,20.00
2018-06-09T01:45:06.396Z,20.00
2018-06-09T01:47:34.852Z,20.00
2018-06-09T01:50:03.361Z,20.00
2018-06-09T01:52:31.795Z,20.00
2018-06-09T01:55:00.267Z,19.90
2018-06-09T01:57:28.751Z,19.90
2018-06-09T01:59:57.259Z,19.90
2018-06-09T02:02:25.731Z,19.90
2018-06-09T02:04:54.183Z,19.90
2018-06-09T02:07:23.977Z,19.90
2018-06-09T02:09:52.417Z,19.90
2018-06-09T02:12:20.815Z,19.90
2018-06-09T02:14:49.315Z,19.90
2018-06-09T02:17:17.726Z,19.90
2018-06-09T02:19:46.247Z,19.80
2018-06-09T02:22:14.667Z,19.80
2018-06-09T02:24:43.128Z,19.80
2018-06-09T02:27:11.564Z,19.70
2018-06-09T02:29:39.992Z,19.70
2018-06-09T02:34:36.528Z,19.80
2018-06-09T02:37:04.982Z,19.90
2018-06-09T02:39:33.442Z,20.00
2018-06-09T02:42:01.946Z,20.00
2018-06-09T02:44:30.612Z,20.00
2018-06-09T02:46:59.052Z,20.10
2018-06-09T02:49:27.498Z,20.10
2018-06-09T02:51:55.946Z,20.10
2018-06-09T02:54:24.432Z,20.10
2018-06-09T02:56:52.881Z,20.10
2018-06-09T03:01:49.456Z,19.90
2018-06-09T03:04:17.885Z,19.90
2018-06-09T03:06:46.267Z,20.00
2018-06-09T03:09:14.673Z,20.00
2018-06-09T03:11:43.131Z,20.10
2018-06-09T03:14:11.539Z,20.20
2018-06-09T03:16:40.100Z,20.20
2018-06-09T03:19:08.540Z,20.30
2018-06-09T03:21:36.973Z,20.20
2018-06-09T03:24:05.387Z,20.20
2018-06-09T03:26:33.819Z,20.20
2018-06-09T03:29:02.223Z,20.20
2018-06-09T03:31:30.786Z,20.20
2018-06-09T03:33:59.258Z,20.20
2018-06-09T03:36:27.731Z,20.30
2018-06-09T03:38:56.143Z,20.30
2018-06-09T03:41:24.575Z,20.30
2018-06-09T03:43:52.983Z,20.40
2018-06-09T03:46:21.689Z,20.40
2018-06-09T03:48:50.186Z,20.40
2018-06-09T03:51:18.540Z,20.50
2018-06-09T03:53:46.981Z,20.50
2018-06-09T03:56:23.983Z,20.60
2018-06-09T03:58:52.439Z,20.50
2018-06-09T04:01:20.903Z,20.50
2018-06-09T04:03:49.376Z,20.50
2018-06-09T04:06:17.785Z,20.50
2018-06-09T04:08:46.261Z,20.50
2018-06-09T04:11:14.675Z,20.50
2018-06-09T04:13:43.209Z,20.50
2018-06-09T04:16:11.703Z,20.50
2018-06-09T04:18:40.411Z,20.50
2018-06-09T04:21:08.882Z,20.50
2018-06-09T04:23:37.340Z,20.60
2018-06-09T04:26:05.990Z,20.60
2018-06-09T04:28:34.428Z,20.60
2018-06-09T04:31:02.893Z,20.70
2018-06-09T04:33:31.286Z,20.70
2018-06-09T04:35:59.772Z,20.70
2018-06-09T04:38:28.166Z,20.80
2018-06-09T04:40:56.623Z,20.80
2018-06-09T04:43:25.049Z,20.80
2018-06-09T04:45:53.464Z,20.80
2018-06-09T04:48:21.976Z,20.90
2018-06-09T04:50:50.504Z,20.90
2018-06-09T04:53:18.932Z,20.90
2018-06-09T04:55:47.393Z,21.00
2018-06-09T04:58:15.890Z,21.00
2018-06-09T05:00:44.395Z,21.00
2018-06-09T05:03:12.935Z,21.00
2018-06-09T05:05:41.351Z,21.00
2018-06-09T05:08:09.923Z,21.10
2018-06-09T05:10:38.373Z,21.10
2018-06-09T05:13:06.816Z,21.10
2018-06-09T05:15:35.240Z,21.10
2018-06-09T05:18:03.676Z,21.10
2018-06-09T05:20:32.127Z,21.10
2018-06-09T05:23:00.616Z,21.10
2018-06-09T05:25:29.052Z,21.00
2018-06-09T05:27:57.500Z,21.10
2018-06-09T05:30:25.897Z,21.10
2018-06-09T05:32:54.381Z,21.20
2018-06-09T05:35:22.810Z,21.20
2018-06-09T05:37:51.278Z,21.10
2018-06-09T05:40:19.814Z,21.10
2018-06-09T05:42:48.361Z,21.10
2018-06-09T05:45:16.825Z,21.10
2018-06-09T05:47:45.246Z,21.10
2018-06-09T05:50:13.725Z,21.10
2018-06-09T05:52:42.123Z,21.10
2018-06-09T05:55:10.763Z,21.10
2018-06-09T05:57:39.182Z,21.10
2018-06-09T06:00:07.768Z,21.10
2018-06-09T06:02:36.207Z,21.10
2018-06-09T06:05:05.295Z,21.10
2018-06-09T06:07:33.806Z,21.00
2018-06-09T06:10:02.288Z,21.10
2018-06-09T06:12:30.795Z,21.10
2018-06-09T06:14:59.225Z,21.20
2018-06-09T06:17:28.096Z,21.30
2018-06-09T06:19:56.518Z,21.30
2018-06-09T06:22:24.903Z,21.30
2018-06-09T06:24:53.353Z,21.30
2018-06-09T06:27:21.804Z,21.30
2018-06-09T06:29:50.293Z,21.20
2018-06-09T06:32:18.696Z,21.20
2018-06-09T06:34:47.416Z,21.10
2018-06-09T06:37:15.992Z,21.00
2018-06-09T06:39:44.412Z,21.00
2018-06-09T06:42:12.840Z,21.00
2018-06-09T06:44:41.292Z,21.00
2018-06-09T06:47:09.799Z,21.10
2018-06-09T06:49:38.223Z,21.10
2018-06-09T06:52:06.718Z,21.10
2018-06-09T06:54:35.199Z,21.10
2018-06-09T06:57:03.652Z,21.10
2018-06-09T06:59:32.141Z,21.10
2018-06-09T07:02:00.590Z,21.20
2018-06-09T07:04:28.979Z,21.30
2018-06-09T07:06:57.435Z,21.40
2018-06-09T07:09:25.883Z,21.40
2018-06-09T07:11:54.361Z,21.50
2018-06-09T07:14:22.815Z,21.50
2018-06-09T07:16:51.207Z,21.50
2018-06-09T07:19:19.715Z,21.50
2018-06-09T07:21:48.167Z,21.50
2018-06-09T07:24:16.683Z,21.60
2018-06-09T07:26:45.098Z,21.80
2018-06-09T07:29:13.536Z,21.80
2018-06-09T07:31:42.035Z,21.90
2018-06-09T07:34:10.493Z,21.90
2018-06-09T07:36:39.023Z,22.00
2018-06-09T07:39:08.078Z,22.10
2018-06-09T07:41:36.499Z,22.30
2018-06-09T07:44:05.110Z,22.50
2018-06-09T07:46:33.605Z,22.70
2018-06-09T07:49:02.040Z,22.80
2018-06-09T07:51:30.415Z,23.00
2018-06-09T07:53:58.906Z,23.20
2018-06-09T07:56:27.381Z,23.40
2018-06-09T07:58:55.879Z,23.70
2018-06-09T08:01:24.386Z,24.10
2018-06-09T08:03:52.817Z,24.60
2018-06-09T08:08:49.441Z,25.40
2018-06-09T08:11:17.937Z,25.40
2018-06-09T08:13:46.335Z,25.40
2018-06-09T08:16:14.886Z,25.60
2018-06-09T08:18:43.521Z,25.90
2018-06-09T08:21:11.899Z,26.20
2018-06-09T08:23:40.331Z,26.70
2018-06-09T08:26:08.743Z,26.80
2018-06-09T08:31:05.321Z,27.40
2018-06-09T08:33:33.756Z,27.70
2018-06-09T08:36:02.388Z,27.90
2018-06-09T08:38:30.832Z,27.90
2018-06-09T08:40:59.280Z,27.90
2018-06-09T08:43:27.710Z,27.70
2018-06-09T08:45:56.156Z,27.50
2018-06-09T08:48:24.636Z,27.90
2018-06-09T08:50:53.126Z,28.00
2018-06-09T08:53:21.598Z,28.10
2018-06-09T08:55:50.027Z,28.20
2018-06-09T08:58:18.428Z,28.30
2018-06-09T09:00:46.888Z,28.00
2018-06-09T09:03:15.505Z,27.80
2018-06-09T09:05:43.860Z,28.00
2018-06-09T09:08:12.592Z,28.00
2018-06-09T09:10:41.088Z,27.90
2018-06-09T09:13:09.518Z,28.10
2018-06-09T09:15:37.936Z,28.30
2018-06-09T09:18:06.450Z,28.70
2018-06-09T09:20:34.852Z,28.90
2018-06-09T09:23:03.268Z,29.00
2018-06-09T09:25:31.694Z,28.60
2018-06-09T09:28:00.117Z,28.40
2018-06-09T09:30:28.567Z,28.50
2018-06-09T09:32:56.971Z,28.70
2018-06-09T09:35:25.421Z,28.80
2018-06-09T09:37:53.848Z,29.30
2018-06-09T09:40:22.330Z,29.70
2018-06-09T09:42:50.793Z,29.80
2018-06-09T09:45:19.208Z,29.80
2018-06-09T09:47:47.760Z,30.10
2018-06-09T09:50:16.196Z,30.00
2018-06-09T09:52:44.612Z,29.70
2018-06-09T09:55:13.039Z,29.90
2018-06-09T09:57:52.932Z,29.90
2018-06-09T10:00:23.512Z,29.90
2018-06-09T10:02:52.352Z,29.80
2018-06-09T10:05:20.884Z,29.50
2018-06-09T10:07:49.332Z,29.50
2018-06-09T10:10:18.008Z,29.40
2018-06-09T10:12:46.556Z,29.50
2018-06-09T10:15:15.118Z,30.00
2018-06-09T10:17:43.560Z,30.10
2018-06-09T10:20:12.050Z,30.10
2018-06-09T10:22:40.508Z,30.40
2018-06-09T10:25:08.944Z,30.70
2018-06-09T10:27:37.424Z,30.50
2018-06-09T10:30:05.868Z,30.20
2018-06-09T10:32:34.276Z,29.80
2018-06-09T10:35:02.752Z,29.40
2018-06-09T10:37:31.137Z,29.20
2018-06-09T10:39:59.996Z,29.40
2018-06-09T10:42:28.502Z,29.20
2018-06-09T10:44:57.616Z,29.30
2018-06-09T10:47:26.059Z,29.50
2018-06-09T10:49:54.632Z,29.50
2018-06-09T10:52:23.040Z,29.40
2018-06-09T10:54:51.733Z,29.50
2018-06-09T10:57:20.405Z,29.40
2018-06-09T10:59:48.939Z,29.30
2018-06-09T11:02:17.391Z,29.20
2018-06-09T11:04:45.953Z,29.30
2018-06-09T11:07:14.357Z,29.50
2018-06-09T11:09:42.805Z,29.70
2018-06-09T11:12:11.623Z,29.70
2018-06-09T11:14:40.091Z,29.90
2018-06-09T11:17:08.522Z,30.10
2018-06-09T11:19:36.961Z,30.50
2018-06-09T11:22:05.419Z,30.40
2018-06-09T11:24:33.897Z,30.10
2018-06-09T11:27:02.328Z,30.00
2018-06-09T11:29:30.799Z,30.30
2018-06-09T11:31:59.261Z,30.20
2018-06-09T11:34:27.721Z,30.30
2018-06-09T11:36:56.188Z,30.20
2018-06-09T11:39:25.466Z,30.10
2018-06-09T11:41:55.664Z,30.10
2018-06-09T11:44:27.397Z,29.90
2018-06-09T11:46:56.333Z,29.60
2018-06-09T11:49:24.788Z,29.30
2018-06-09T11:51:53.332Z,29.20
2018-06-09T11:54:21.787Z,29.30
2018-06-09T11:56:50.221Z,29.30
2018-06-09T11:59:18.725Z,29.50
2018-06-09T12:01:47.237Z,29.50
2018-06-09T12:04:15.621Z,29.50
2018-06-09T12:06:44.053Z,29.50
2018-06-09T12:09:12.491Z,29.40
2018-06-09T12:11:41.479Z,29.40
2018-06-09T12:14:09.963Z,29.70
2018-06-09T12:16:38.537Z,29.60
2018-06-09T12:19:11.512Z,29.40
2018-06-09T12:21:40.363Z,29.30
2018-06-09T12:24:08.803Z,29.30
2018-06-09T12:26:37.339Z,29.00
2018-06-09T12:29:05.850Z,28.90
2018-06-09T12:31:34.355Z,28.80
2018-06-09T12:34:02.870Z,28.60
2018-06-09T12:36:31.345Z,28.40
2018-06-09T12:38:59.923Z,28.20
2018-06-09T12:41:28.535Z,28.30
2018-06-09T12:43:58.139Z,28.50
2018-06-09T12:46:26.637Z,28.40
2018-06-09T12:48:55.056Z,28.50
2018-06-09T12:51:23.709Z,28.80
2018-06-09T12:53:52.183Z,28.80
2018-06-09T12:56:20.618Z,28.70
2018-06-09T12:58:49.065Z,28.80
2018-06-09T13:01:17.755Z,28.80
2018-06-09T13:03:46.208Z,28.70
2018-06-09T13:06:14.656Z,28.80
2018-06-09T13:08:43.088Z,28.80
2018-06-09T13:11:11.504Z,28.70
2018-06-09T13:13:39.952Z,28.90
2018-06-09T13:16:08.411Z,28.90
2018-06-09T13:18:37.262Z,28.70
2018-06-09T13:21:05.945Z,28.70
2018-06-09T13:23:34.497Z,28.70
2018-06-09T13:26:03.028Z,28.70
2018-06-09T13:28:31.454Z,28.70
2018-06-09T13:30:59.898Z,28.60
2018-06-09T13:33:28.352Z,28.60
2018-06-09T13:35:56.936Z,28.60
2018-06-09T13:38:25.932Z,28.70
2018-06-09T13:40:54.425Z,28.70
2018-06-09T13:43:22.866Z,28.60
2018-06-09T13:45:51.304Z,28.60
2018-06-09T13:48:19.748Z,28.50
2018-06-09T13:50:48.234Z,28.50
2018-06-09T13:53:16.736Z,28.50
2018-06-09T13:55:45.469Z,28.50
2018-06-09T13:58:13.918Z,28.50
2018-06-09T14:00:42.428Z,28.50
2018-06-09T14:03:10.861Z,28.50
2018-06-09T14:05:39.256Z,28.50
2018-06-09T14:08:07.720Z,28.40
2018-06-09T14:10:36.175Z,28.30
2018-06-09T14:13:04.626Z,28.30
2018-06-09T14:15:33.110Z,28.20
2018-06-09T14:18:01.521Z,28.40
2018-06-09T14:20:30.125Z,28.40
2018-06-09T14:22:58.567Z,28.40
2018-06-09T14:25:26.997Z,28.20
2018-06-09T14:27:55.627Z,28.10
2018-06-09T14:30:24.178Z,28.20
2018-06-09T14:32:52.600Z,28.20
2018-06-09T14:35:21.117Z,28.20
2018-06-09T14:37:49.637Z,28.10
2018-06-09T14:40:18.117Z,28.10
2018-06-09T14:42:46.521Z,28.00
2018-06-09T14:45:15.006Z,28.00
2018-06-09T14:47:43.401Z,28.00
2018-06-09T14:50:11.849Z,28.00
2018-06-09T14:52:40.565Z,28.10
2018-06-09T14:55:09.549Z,28.10
2018-06-09T14:57:38.125Z,28.20
2018-06-09T15:00:06.802Z,28.20
2018-06-09T15:02:35.233Z,28.30
2018-06-09T15:05:03.789Z,28.30
2018-06-09T15:07:33.185Z,28.30
2018-06-09T15:10:01.709Z,28.30
2018-06-09T15:12:30.181Z,28.30
2018-06-09T15:14:58.961Z,28.30
2018-06-09T15:17:27.376Z,28.40
2018-06-09T15:19:55.853Z,28.40
2018-06-09T15:22:24.329Z,28.30
2018-06-09T15:24:52.712Z,28.30
2018-06-09T15:27:21.155Z,28.40
2018-06-09T15:29:49.565Z,28.60
2018-06-09T15:32:18.068Z,28.60
2018-06-09T15:37:14.678Z,28.30
2018-06-09T15:39:43.093Z,28.30
2018-06-09T15:42:11.506Z,28.40
2018-06-09T15:44:39.931Z,28.50
2018-06-09T15:47:08.415Z,28.50
2018-06-09T15:49:36.853Z,28.60
2018-06-09T15:52:05.456Z,28.40
2018-06-09T15:54:33.942Z,28.30
2018-06-09T15:57:02.393Z,28.20
2018-06-09T15:59:30.823Z,28.30
2018-06-09T16:01:59.248Z,28.20
2018-06-09T16:04:27.688Z,28.20
2018-06-09T16:06:56.159Z,28.10
2018-06-09T16:09:24.630Z,27.90
2018-06-09T16:11:53.036Z,27.90
2018-06-09T16:14:21.491Z,27.80
2018-06-09T16:16:49.925Z,27.70
2018-06-09T16:19:18.380Z,27.70
2018-06-09T16:21:46.853Z,27.70
2018-06-09T16:24:15.297Z,27.70
2018-06-09T16:26:43.716Z,27.60
2018-06-09T16:29:12.217Z,27.60
2018-06-09T16:31:40.603Z,27.70
2018-06-09T16:34:09.031Z,27.60
2018-06-09T16:36:37.572Z,27.60
2018-06-09T16:39:07.319Z,27.60
2018-06-09T16:41:35.989Z,27.50
2018-06-09T16:44:04.456Z,27.50
2018-06-09T16:46:33.747Z,27.50
2018-06-09T16:49:02.340Z,27.50
2018-06-09T16:51:30.740Z,27.50
2018-06-09T16:53:59.249Z,27.60
2018-06-09T16:56:27.672Z,27.60
2018-06-09T16:58:56.132Z,27.60
2018-06-09T17:01:24.602Z,27.70
2018-06-09T17:03:53.093Z,27.70
2018-06-09T17:06:21.673Z,27.70
2018-06-09T17:08:50.116Z,27.70
2018-06-09T17:11:18.585Z,27.70
2018-06-09T17:13:47.061Z,27.70
2018-06-09T17:16:15.622Z,27.80
2018-06-09T17:18:44.137Z,27.80
2018-06-09T17:23:40.679Z,27.70
2018-06-09T17:26:09.207Z,27.70
2018-06-09T17:28:37.655Z,27.60
2018-06-09T17:31:06.101Z,27.50
2018-06-09T17:33:34.579Z,27.50
2018-06-09T17:36:03.025Z,27.50
2018-06-09T17:38:31.546Z,27.50
2018-06-09T17:41:00.039Z,27.50
2018-06-09T17:43:33.579Z,27.40
2018-06-09T17:46:01.998Z,27.40
2018-06-09T17:48:30.481Z,27.40
2018-06-09T17:50:59.029Z,27.40
2018-06-09T17:53:27.385Z,27.40
2018-06-09T17:55:55.869Z,27.40
2018-06-09T17:58:24.337Z,27.50
2018-06-09T18:00:52.876Z,27.40
2018-06-09T18:03:21.381Z,27.40
2018-06-09T18:05:49.959Z,27.40
2018-06-09T18:08:18.495Z,27.30
2018-06-09T18:10:46.918Z,27.30
2018-06-09T18:13:15.453Z,27.20
2018-06-09T18:15:43.867Z,27.10
2018-06-09T18:18:12.289Z,27.10
2018-06-09T18:20:40.979Z,27.10
2018-06-09T18:23:09.427Z,27.00
2018-06-09T18:25:37.869Z,26.90
2018-06-09T18:28:06.385Z,26.80
2018-06-09T18:30:34.833Z,26.70
2018-06-09T18:33:03.363Z,26.60
2018-06-09T18:35:31.781Z,26.50
2018-06-09T18:38:00.343Z,26.40
2018-06-09T18:40:28.889Z,26.30
2018-06-09T18:42:57.401Z,26.30
2018-06-09T18:45:25.807Z,26.20
2018-06-09T18:47:54.305Z,26.20
2018-06-09T18:50:22.767Z,26.10
2018-06-09T18:52:51.187Z,26.00
2018-06-09T18:55:19.629Z,26.00
2018-06-09T18:57:48.073Z,25.90
2018-06-09T19:00:16.477Z,25.80
2018-06-09T19:02:44.956Z,25.80
2018-06-09T19:05:13.594Z,25.80
2018-06-09T19:07:42.234Z,25.70
2018-06-09T19:10:10.728Z,25.70
2018-06-09T19:12:39.207Z,25.60
2018-06-09T19:15:07.644Z,25.60
2018-06-09T19:17:36.073Z,25.60
2018-06-09T19:20:04.986Z,25.60
2018-06-09T19:22:33.416Z,25.60
2018-06-09T19:25:01.875Z,25.60
2018-06-09T19:27:30.354Z,25.50
2018-06-09T19:29:58.827Z,25.50
2018-06-09T19:32:27.228Z,25.50
2018-06-09T19:34:55.679Z,25.50
2018-06-09T19:37:24.254Z,25.50
2018-06-09T19:39:52.668Z,25.50
2018-06-09T19:42:21.151Z,25.40
2018-06-09T19:44:49.612Z,25.40
2018-06-09T19:47:18.053Z,25.40
2018-06-09T19:49:46.622Z,25.40
2018-06-09T19:52:15.042Z,25.40
2018-06-09T19:54:43.554Z,25.40
2018-06-09T19:57:11.975Z,25.30
2018-06-09T19:59:40.444Z,25.30
2018-06-09T20:02:08.879Z,25.30
2018-06-09T20:04:37.339Z,25.20
2018-06-09T20:07:05.819Z,25.20
2018-06-09T20:09:34.979Z,25.20
2018-06-09T20:12:03.404Z,25.20
2018-06-09T20:14:31.861Z,25.20
2018-06-09T20:17:00.272Z,25.20
2018-06-09T20:19:28.747Z,25.20
2018-06-09T20:21:57.219Z,25.10
2018-06-09T20:24:25.681Z,25.10
2018-06-09T20:26:54.124Z,25.10
2018-06-09T20:29:22.641Z,25.10
2018-06-09T20:31:51.145Z,25.00
2018-06-09T20:34:19.577Z,25.00
2018-06-09T20:36:48.056Z,25.00
2018-06-09T20:39:16.485Z,25.00
2018-06-09T20:41:45.165Z,24.90
2018-06-09T20:44:14.203Z,24.90
2018-06-09T20:46:43.049Z,24.90
2018-06-09T20:49:11.666Z,24.90
2018-06-09T20:51:40.258Z,24.90
2018-06-09T20:54:08.697Z,24.80
2018-06-09T20:56:37.147Z,24.80
2018-06-09T20:59:05.641Z,24.80
2018-06-09T21:01:34.056Z,24.80
2018-06-09T21:04:02.813Z,24.80
2018-06-09T21:06:31.265Z,24.80
2018-06-09T21:08:59.725Z,24.70
2018-06-09T21:11:28.151Z,24.70
2018-06-09T21:13:56.582Z,24.60
2018-06-09T21:16:25.065Z,24.60
2018-06-09T21:18:53.540Z,24.80
2018-06-09T21:21:21.997Z,24.90
2018-06-09T21:23:50.583Z,24.90
2018-06-09T21:26:19.004Z,25.00
2018-06-09T21:28:52.616Z,25.10
2018-06-09T21:31:26.282Z,25.10
2018-06-09T21:34:06.287Z,25.20
2018-06-09T21:36:40.185Z,25.20
2018-06-09T21:41:48.142Z,25.20
2018-06-09T21:44:22.020Z,25.20
2018-06-09T21:46:50.524Z,25.20
2018-06-09T21:49:18.958Z,25.30
2018-06-09T21:51:47.360Z,25.20
2018-06-09T21:54:15.822Z,25.30
2018-06-09T21:56:44.296Z,25.20
2018-06-09T21:59:12.754Z,25.30
2018-06-09T22:01:41.186Z,25.20
2018-06-09T22:04:09.604Z,25.20
2018-06-09T22:06:38.170Z,25.20
2018-06-09T22:09:06.850Z,25.20
2018-06-09T22:11:35.412Z,25.30
2018-06-09T22:14:03.938Z,25.30
2018-06-09T22:16:32.448Z,25.20
2018-06-09T22:19:08.773Z,25.40
2018-06-09T22:21:37.227Z,25.20
2018-06-09T22:24:06.108Z,25.20
2018-06-09T22:26:34.687Z,25.10
2018-06-09T22:29:03.119Z,25.10
2018-06-09T22:31:31.748Z,24.60
2018-06-09T22:34:11.440Z,24.20
2018-06-09T22:36:39.872Z,24.10
2018-06-09T22:39:08.989Z,23.90
2018-06-09T22:41:42.751Z,23.80
2018-06-09T22:44:11.188Z,23.70
2018-06-09T22:46:39.721Z,23.60
2018-06-09T22:49:08.186Z,23.60
2018-06-09T22:51:36.662Z,23.70
2018-06-09T22:54:05.057Z,23.70
2018-06-09T22:56:33.506Z,23.70
2018-06-09T22:59:04.273Z,23.60
2018-06-09T23:01:32.772Z,23.60
2018-06-09T23:04:01.410Z,23.70
2018-06-09T23:06:29.848Z,23.60
2018-06-09T23:08:58.333Z,23.30
2018-06-09T23:11:26.795Z,23.10
2018-06-09T23:13:55.262Z,22.80
2018-06-09T23:16:23.640Z,22.90
2018-06-09T23:18:52.113Z,22.90
2018-06-09T23:21:20.589Z,22.90
2018-06-09T23:23:49.047Z,22.90
2018-06-09T23:26:17.485Z,22.90
2018-06-09T23:28:45.904Z,22.80
2018-06-09T23:31:14.343Z,22.70
2018-06-09T23:33:42.987Z,22.60
2018-06-09T23:36:11.589Z,22.60
2018-06-09T23:38:42.502Z,22.50
2018-06-09T23:41:11.096Z,22.20
2018-06-09T23:43:39.541Z,21.90
2018-06-09T23:46:08.768Z,21.70
2018-06-09T23:48:37.257Z,21.60
2018-06-09T23:51:05.641Z,21.50
2018-06-09T23:53:34.147Z,21.30
2018-06-09T23:56:02.632Z,21.20
2018-06-09T23:58:31.058Z,21.00
